sensor_id;sensor_type;location;lat;lon;timestamp;P1;durP1;ratioP1;P2;durP2;ratioP2
78484;SDS011;67773;50.806;8.776;2023-07-20T00:00:22;3.55;;;2.42;;
78484;SDS011;67773;50.806;8.776;2023-07-20T00:02:49;2.38;;;1.95;;
78484;SDS011;67773;50.806;8.776;2023-07-20T00:05:15;3.15;;;2.10;;
78484;SDS011;67773;50.806;8.776;2023-07-20T00:07:43;2.80;;;2.17;;
78484;SDS011;67773;50.806;8.776;2023-07-20T00:10:09;3.13;;;2.13;;
78484;SDS011;67773;50.806;8.776;2023-07-20T00:12:34;2.47;;;2.28;;
78484;SDS011;67773;50.806;8.776;2023-07-20T00:15:00;2.70;;;2.20;;
78484;SDS011;67773;50.806;8.776;2023-07-20T00:17:25;3.00;;;2.20;;
78484;SDS011;67773;50.806;8.776;2023-07-20T00:19:50;4.40;;;2.40;;
78484;SDS011;67773;50.806;8.776;2023-07-20T00:22:16;3.27;;;2.40;;
78484;SDS011;67773;50.806;8.776;2023-07-20T00:24:41;4.40;;;2.50;;
78484;SDS011;67773;50.806;8.776;2023-07-20T00:27:06;3.17;;;2.47;;
78484;SDS011;67773;50.806;8.776;2023-07-20T00:29:32;3.95;;;2.83;;
78484;SDS011;67773;50.806;8.776;2023-07-20T00:31:58;4.03;;;3.03;;
78484;SDS011;67773;50.806;8.776;2023-07-20T00:34:23;4.10;;;2.58;;
78484;SDS011;67773;50.806;8.776;2023-07-20T00:36:48;2.97;;;2.70;;
78484;SDS011;67773;50.806;8.776;2023-07-20T00:39:14;3.35;;;2.47;;
78484;SDS011;67773;50.806;8.776;2023-07-20T00:41:39;3.97;;;2.80;;
78484;SDS011;67773;50.806;8.776;2023-07-20T00:44:05;4.17;;;2.60;;
78484;SDS011;67773;50.806;8.776;2023-07-20T00:46:30;3.25;;;2.58;;
78484;SDS011;67773;50.806;8.776;2023-07-20T00:48:57;3.80;;;2.70;;
78484;SDS011;67773;50.806;8.776;2023-07-20T00:51:23;5.65;;;3.00;;
78484;SDS011;67773;50.806;8.776;2023-07-20T00:53:51;5.80;;;2.67;;
78484;SDS011;67773;50.806;8.776;2023-07-20T00:56:16;4.22;;;2.63;;
78484;SDS011;67773;50.806;8.776;2023-07-20T00:58:42;3.70;;;3.00;;
78484;SDS011;67773;50.806;8.776;2023-07-20T01:01:07;3.65;;;2.95;;
78484;SDS011;67773;50.806;8.776;2023-07-20T01:03:33;3.73;;;3.17;;
78484;SDS011;67773;50.806;8.776;2023-07-20T01:06:05;3.27;;;2.60;;
78484;SDS011;67773;50.806;8.776;2023-07-20T01:08:45;5.68;;;3.20;;
78484;SDS011;67773;50.806;8.776;2023-07-20T01:11:23;3.47;;;2.90;;
78484;SDS011;67773;50.806;8.776;2023-07-20T01:14:15;4.95;;;2.60;;
78484;SDS011;67773;50.806;8.776;2023-07-20T01:16:42;5.22;;;3.22;;
78484;SDS011;67773;50.806;8.776;2023-07-20T01:19:07;4.03;;;2.83;;
78484;SDS011;67773;50.806;8.776;2023-07-20T01:21:53;3.92;;;3.10;;
78484;SDS011;67773;50.806;8.776;2023-07-20T01:28:01;4.18;;;3.10;;
78484;SDS011;67773;50.806;8.776;2023-07-20T01:32:52;4.68;;;2.58;;
78484;SDS011;67773;50.806;8.776;2023-07-20T01:35:20;4.55;;;3.05;;
78484;SDS011;67773;50.806;8.776;2023-07-20T01:37:52;3.95;;;2.85;;
78484;SDS011;67773;50.806;8.776;2023-07-20T01:40:19;3.72;;;2.75;;
78484;SDS011;67773;50.806;8.776;2023-07-20T01:42:45;3.80;;;3.00;;
78484;SDS011;67773;50.806;8.776;2023-07-20T01:45:12;3.75;;;2.97;;
78484;SDS011;67773;50.806;8.776;2023-07-20T01:47:37;5.97;;;3.00;;
78484;SDS011;67773;50.806;8.776;2023-07-20T01:50:03;3.70;;;2.83;;
78484;SDS011;67773;50.806;8.776;2023-07-20T01:52:28;3.80;;;3.22;;
78484;SDS011;67773;50.806;8.776;2023-07-20T01:54:54;4.43;;;3.40;;
78484;SDS011;67773;50.806;8.776;2023-07-20T01:57:19;3.73;;;2.90;;
78484;SDS011;67773;50.806;8.776;2023-07-20T01:59:45;6.78;;;3.17;;
78484;SDS011;67773;50.806;8.776;2023-07-20T02:02:11;4.90;;;3.00;;
78484;SDS011;67773;50.806;8.776;2023-07-20T02:04:36;5.43;;;3.07;;
78484;SDS011;67773;50.806;8.776;2023-07-20T02:07:01;4.40;;;2.77;;
78484;SDS011;67773;50.806;8.776;2023-07-20T02:09:26;3.60;;;2.80;;
78484;SDS011;67773;50.806;8.776;2023-07-20T02:11:52;3.17;;;2.88;;
78484;SDS011;67773;50.806;8.776;2023-07-20T02:14:17;3.67;;;2.50;;
78484;SDS011;67773;50.806;8.776;2023-07-20T02:16:43;5.10;;;3.00;;
78484;SDS011;67773;50.806;8.776;2023-07-20T02:19:08;4.17;;;2.97;;
78484;SDS011;67773;50.806;8.776;2023-07-20T02:21:33;4.18;;;2.72;;
78484;SDS011;67773;50.806;8.776;2023-07-20T02:23:59;3.90;;;2.90;;
78484;SDS011;67773;50.806;8.776;2023-07-20T02:26:24;5.40;;;3.00;;
78484;SDS011;67773;50.806;8.776;2023-07-20T02:28:50;4.07;;;2.80;;
78484;SDS011;67773;50.806;8.776;2023-07-20T02:31:15;5.15;;;2.95;;
78484;SDS011;67773;50.806;8.776;2023-07-20T02:33:41;3.47;;;3.07;;
78484;SDS011;67773;50.806;8.776;2023-07-20T02:36:06;6.00;;;3.13;;
78484;SDS011;67773;50.806;8.776;2023-07-20T02:38:31;5.43;;;2.90;;
78484;SDS011;67773;50.806;8.776;2023-07-20T02:40:57;5.20;;;3.27;;
78484;SDS011;67773;50.806;8.776;2023-07-20T02:43:22;4.67;;;3.20;;
78484;SDS011;67773;50.806;8.776;2023-07-20T02:45:47;4.97;;;3.00;;
78484;SDS011;67773;50.806;8.776;2023-07-20T02:48:13;3.33;;;2.92;;
78484;SDS011;67773;50.806;8.776;2023-07-20T02:50:38;3.83;;;2.97;;
78484;SDS011;67773;50.806;8.776;2023-07-20T02:53:03;4.57;;;3.07;;
78484;SDS011;67773;50.806;8.776;2023-07-20T02:55:29;4.83;;;2.87;;
78484;SDS011;67773;50.806;8.776;2023-07-20T02:57:54;3.50;;;2.50;;
78484;SDS011;67773;50.806;8.776;2023-07-20T03:00:19;4.57;;;2.70;;
78484;SDS011;67773;50.806;8.776;2023-07-20T03:02:45;4.70;;;2.83;;
78484;SDS011;67773;50.806;8.776;2023-07-20T03:05:20;4.78;;;2.55;;
78484;SDS011;67773;50.806;8.776;2023-07-20T03:07:46;3.58;;;2.80;;
78484;SDS011;67773;50.806;8.776;2023-07-20T03:10:11;4.10;;;2.85;;
78484;SDS011;67773;50.806;8.776;2023-07-20T03:12:36;5.33;;;2.83;;
78484;SDS011;67773;50.806;8.776;2023-07-20T03:15:02;4.67;;;2.77;;
78484;SDS011;67773;50.806;8.776;2023-07-20T03:17:28;4.10;;;2.95;;
78484;SDS011;67773;50.806;8.776;2023-07-20T03:19:53;3.67;;;2.72;;
78484;SDS011;67773;50.806;8.776;2023-07-20T03:22:18;4.63;;;2.92;;
78484;SDS011;67773;50.806;8.776;2023-07-20T03:24:44;3.57;;;2.80;;
78484;SDS011;67773;50.806;8.776;2023-07-20T03:27:09;4.77;;;3.07;;
78484;SDS011;67773;50.806;8.776;2023-07-20T03:29:34;4.70;;;3.10;;
78484;SDS011;67773;50.806;8.776;2023-07-20T03:32:00;3.88;;;2.92;;
78484;SDS011;67773;50.806;8.776;2023-07-20T03:34:25;4.87;;;2.87;;
78484;SDS011;67773;50.806;8.776;2023-07-20T03:36:50;5.00;;;2.83;;
78484;SDS011;67773;50.806;8.776;2023-07-20T03:39:16;4.50;;;2.83;;
78484;SDS011;67773;50.806;8.776;2023-07-20T03:41:41;10.90;;;7.10;;
78484;SDS011;67773;50.806;8.776;2023-07-20T03:44:08;10.63;;;6.45;;
78484;SDS011;67773;50.806;8.776;2023-07-20T03:46:33;7.50;;;4.07;;
78484;SDS011;67773;50.806;8.776;2023-07-20T03:48:59;5.60;;;3.60;;
78484;SDS011;67773;50.806;8.776;2023-07-20T03:51:24;3.95;;;3.17;;
78484;SDS011;67773;50.806;8.776;2023-07-20T03:53:50;7.13;;;4.73;;
78484;SDS011;67773;50.806;8.776;2023-07-20T03:56:15;7.53;;;3.97;;
78484;SDS011;67773;50.806;8.776;2023-07-20T03:58:40;4.87;;;3.00;;
78484;SDS011;67773;50.806;8.776;2023-07-20T04:01:06;6.07;;;3.28;;
78484;SDS011;67773;50.806;8.776;2023-07-20T04:03:32;6.05;;;4.38;;
78484;SDS011;67773;50.806;8.776;2023-07-20T04:05:57;5.67;;;3.80;;
78484;SDS011;67773;50.806;8.776;2023-07-20T04:08:25;8.60;;;4.65;;
78484;SDS011;67773;50.806;8.776;2023-07-20T04:10:51;5.22;;;3.28;;
78484;SDS011;67773;50.806;8.776;2023-07-20T04:13:17;5.00;;;3.20;;
78484;SDS011;67773;50.806;8.776;2023-07-20T04:15:42;4.70;;;3.00;;
78484;SDS011;67773;50.806;8.776;2023-07-20T04:18:08;6.05;;;3.45;;
78484;SDS011;67773;50.806;8.776;2023-07-20T04:20:33;6.20;;;3.20;;
78484;SDS011;67773;50.806;8.776;2023-07-20T04:22:58;3.60;;;3.08;;
78484;SDS011;67773;50.806;8.776;2023-07-20T04:25:24;5.97;;;3.57;;
78484;SDS011;67773;50.806;8.776;2023-07-20T04:27:49;4.20;;;3.03;;
78484;SDS011;67773;50.806;8.776;2023-07-20T04:30:17;4.72;;;2.97;;
78484;SDS011;67773;50.806;8.776;2023-07-20T04:32:45;9.50;;;4.35;;
78484;SDS011;67773;50.806;8.776;2023-07-20T04:35:11;9.15;;;4.40;;
78484;SDS011;67773;50.806;8.776;2023-07-20T04:37:41;11.93;;;4.40;;
78484;SDS011;67773;50.806;8.776;2023-07-20T04:40:11;7.10;;;4.07;;
78484;SDS011;67773;50.806;8.776;2023-07-20T04:42:37;6.28;;;4.00;;
78484;SDS011;67773;50.806;8.776;2023-07-20T04:45:03;5.05;;;3.80;;
78484;SDS011;67773;50.806;8.776;2023-07-20T04:47:29;6.25;;;4.25;;
78484;SDS011;67773;50.806;8.776;2023-07-20T04:49:54;6.07;;;3.17;;
78484;SDS011;67773;50.806;8.776;2023-07-20T04:52:20;5.18;;;3.13;;
78484;SDS011;67773;50.806;8.776;2023-07-20T04:54:45;5.70;;;3.60;;
78484;SDS011;67773;50.806;8.776;2023-07-20T04:57:11;6.43;;;3.27;;
78484;SDS011;67773;50.806;8.776;2023-07-20T04:59:37;5.93;;;3.75;;
78484;SDS011;67773;50.806;8.776;2023-07-20T05:02:02;5.33;;;3.27;;
78484;SDS011;67773;50.806;8.776;2023-07-20T05:04:27;5.07;;;3.80;;
78484;SDS011;67773;50.806;8.776;2023-07-20T05:06:52;6.63;;;3.03;;
78484;SDS011;67773;50.806;8.776;2023-07-20T05:09:18;5.23;;;3.37;;
78484;SDS011;67773;50.806;8.776;2023-07-20T05:11:43;4.50;;;3.60;;
78484;SDS011;67773;50.806;8.776;2023-07-20T05:14:10;5.18;;;3.30;;
78484;SDS011;67773;50.806;8.776;2023-07-20T05:16:35;7.13;;;3.40;;
78484;SDS011;67773;50.806;8.776;2023-07-20T05:19:00;6.93;;;3.73;;
78484;SDS011;67773;50.806;8.776;2023-07-20T05:21:26;6.57;;;3.28;;
78484;SDS011;67773;50.806;8.776;2023-07-20T05:23:51;5.53;;;3.43;;
78484;SDS011;67773;50.806;8.776;2023-07-20T05:26:16;5.80;;;3.30;;
78484;SDS011;67773;50.806;8.776;2023-07-20T05:28:42;8.33;;;3.67;;
78484;SDS011;67773;50.806;8.776;2023-07-20T05:31:07;7.93;;;4.40;;
78484;SDS011;67773;50.806;8.776;2023-07-20T05:33:32;6.23;;;3.73;;
78484;SDS011;67773;50.806;8.776;2023-07-20T05:35:58;7.22;;;3.47;;
78484;SDS011;67773;50.806;8.776;2023-07-20T05:38:23;7.38;;;3.47;;
78484;SDS011;67773;50.806;8.776;2023-07-20T05:40:49;6.35;;;3.63;;
78484;SDS011;67773;50.806;8.776;2023-07-20T05:43:14;5.70;;;3.60;;
78484;SDS011;67773;50.806;8.776;2023-07-20T05:45:43;5.67;;;3.33;;
78484;SDS011;67773;50.806;8.776;2023-07-20T05:48:09;8.43;;;3.03;;
78484;SDS011;67773;50.806;8.776;2023-07-20T05:50:36;6.28;;;3.63;;
78484;SDS011;67773;50.806;8.776;2023-07-20T05:53:03;4.97;;;3.55;;
78484;SDS011;67773;50.806;8.776;2023-07-20T05:55:28;6.65;;;3.33;;
78484;SDS011;67773;50.806;8.776;2023-07-20T05:57:53;4.80;;;3.00;;
78484;SDS011;67773;50.806;8.776;2023-07-20T06:00:20;6.82;;;3.22;;
78484;SDS011;67773;50.806;8.776;2023-07-20T06:02:51;6.22;;;3.55;;
78484;SDS011;67773;50.806;8.776;2023-07-20T06:05:18;5.00;;;3.10;;
78484;SDS011;67773;50.806;8.776;2023-07-20T06:07:44;5.47;;;3.30;;
78484;SDS011;67773;50.806;8.776;2023-07-20T06:10:09;7.07;;;3.17;;
78484;SDS011;67773;50.806;8.776;2023-07-20T06:12:34;7.35;;;3.33;;
78484;SDS011;67773;50.806;8.776;2023-07-20T06:15:12;7.00;;;3.43;;
78484;SDS011;67773;50.806;8.776;2023-07-20T06:20:16;5.20;;;3.47;;
78484;SDS011;67773;50.806;8.776;2023-07-20T06:22:41;5.47;;;3.75;;
78484;SDS011;67773;50.806;8.776;2023-07-20T06:25:07;6.10;;;4.30;;
78484;SDS011;67773;50.806;8.776;2023-07-20T06:27:32;8.15;;;4.40;;
78484;SDS011;67773;50.806;8.776;2023-07-20T06:29:58;7.57;;;3.97;;
78484;SDS011;67773;50.806;8.776;2023-07-20T06:32:23;8.83;;;4.13;;
78484;SDS011;67773;50.806;8.776;2023-07-20T06:34:48;8.23;;;5.30;;
78484;SDS011;67773;50.806;8.776;2023-07-20T06:37:14;7.80;;;5.00;;
78484;SDS011;67773;50.806;8.776;2023-07-20T06:39:39;8.43;;;6.07;;
78484;SDS011;67773;50.806;8.776;2023-07-20T06:42:04;8.53;;;5.23;;
78484;SDS011;67773;50.806;8.776;2023-07-20T06:44:30;7.80;;;5.28;;
78484;SDS011;67773;50.806;8.776;2023-07-20T06:46:56;6.40;;;5.03;;
78484;SDS011;67773;50.806;8.776;2023-07-20T06:49:24;9.83;;;5.60;;
78484;SDS011;67773;50.806;8.776;2023-07-20T06:51:51;9.55;;;6.35;;
78484;SDS011;67773;50.806;8.776;2023-07-20T06:54:16;8.32;;;5.85;;
78484;SDS011;67773;50.806;8.776;2023-07-20T06:56:41;7.10;;;5.43;;
78484;SDS011;67773;50.806;8.776;2023-07-20T06:59:07;8.17;;;5.30;;
78484;SDS011;67773;50.806;8.776;2023-07-20T07:01:32;7.57;;;5.47;;
78484;SDS011;67773;50.806;8.776;2023-07-20T07:03:57;8.33;;;5.90;;
78484;SDS011;67773;50.806;8.776;2023-07-20T07:06:22;7.73;;;5.57;;
78484;SDS011;67773;50.806;8.776;2023-07-20T07:08:48;8.52;;;6.00;;
78484;SDS011;67773;50.806;8.776;2023-07-20T07:11:13;9.77;;;5.90;;
78484;SDS011;67773;50.806;8.776;2023-07-20T07:13:39;7.20;;;5.37;;
78484;SDS011;67773;50.806;8.776;2023-07-20T07:16:04;9.13;;;5.30;;
78484;SDS011;67773;50.806;8.776;2023-07-20T07:18:29;6.95;;;5.50;;
78484;SDS011;67773;50.806;8.776;2023-07-20T07:20:55;9.57;;;5.53;;
78484;SDS011;67773;50.806;8.776;2023-07-20T07:23:20;9.23;;;5.68;;
78484;SDS011;67773;50.806;8.776;2023-07-20T07:25:46;6.57;;;4.72;;
78484;SDS011;67773;50.806;8.776;2023-07-20T07:28:12;6.18;;;4.57;;
78484;SDS011;67773;50.806;8.776;2023-07-20T07:30:37;7.90;;;5.32;;
78484;SDS011;67773;50.806;8.776;2023-07-20T07:33:03;9.75;;;5.30;;
78484;SDS011;67773;50.806;8.776;2023-07-20T07:35:28;6.90;;;5.07;;
78484;SDS011;67773;50.806;8.776;2023-07-20T07:37:54;6.05;;;4.60;;
78484;SDS011;67773;50.806;8.776;2023-07-20T07:40:19;7.03;;;4.53;;
78484;SDS011;67773;50.806;8.776;2023-07-20T07:42:45;8.20;;;4.57;;
78484;SDS011;67773;50.806;8.776;2023-07-20T07:45:10;6.93;;;4.10;;
78484;SDS011;67773;50.806;8.776;2023-07-20T07:47:35;5.50;;;4.40;;
78484;SDS011;67773;50.806;8.776;2023-07-20T07:50:01;5.32;;;3.90;;
78484;SDS011;67773;50.806;8.776;2023-07-20T07:52:27;4.35;;;3.45;;
78484;SDS011;67773;50.806;8.776;2023-07-20T07:54:52;5.20;;;3.72;;
78484;SDS011;67773;50.806;8.776;2023-07-20T07:57:17;5.70;;;3.20;;
78484;SDS011;67773;50.806;8.776;2023-07-20T07:59:43;4.80;;;3.33;;
78484;SDS011;67773;50.806;8.776;2023-07-20T08:02:08;5.77;;;4.10;;
78484;SDS011;67773;50.806;8.776;2023-07-20T08:04:33;5.00;;;3.30;;
78484;SDS011;67773;50.806;8.776;2023-07-20T08:06:59;4.53;;;2.90;;
78484;SDS011;67773;50.806;8.776;2023-07-20T08:09:24;6.63;;;3.50;;
78484;SDS011;67773;50.806;8.776;2023-07-20T08:11:50;4.28;;;3.05;;
78484;SDS011;67773;50.806;8.776;2023-07-20T08:14:16;5.20;;;3.40;;
78484;SDS011;67773;50.806;8.776;2023-07-20T08:16:41;3.63;;;3.15;;
78484;SDS011;67773;50.806;8.776;2023-07-20T08:19:06;4.97;;;3.40;;
78484;SDS011;67773;50.806;8.776;2023-07-20T08:21:32;16.60;;;8.33;;
78484;SDS011;67773;50.806;8.776;2023-07-20T08:23:57;4.03;;;3.43;;
78484;SDS011;67773;50.806;8.776;2023-07-20T08:26:23;4.33;;;2.97;;
78484;SDS011;67773;50.806;8.776;2023-07-20T08:28:48;4.10;;;2.78;;
78484;SDS011;67773;50.806;8.776;2023-07-20T08:31:14;4.65;;;2.85;;
78484;SDS011;67773;50.806;8.776;2023-07-20T08:33:39;3.63;;;2.33;;
78484;SDS011;67773;50.806;8.776;2023-07-20T08:36:05;2.75;;;2.17;;
78484;SDS011;67773;50.806;8.776;2023-07-20T08:38:31;6.03;;;2.55;;
78484;SDS011;67773;50.806;8.776;2023-07-20T08:40:56;5.57;;;2.40;;
78484;SDS011;67773;50.806;8.776;2023-07-20T08:43:24;3.25;;;2.35;;
78484;SDS011;67773;50.806;8.776;2023-07-20T08:45:50;3.83;;;2.58;;
78484;SDS011;67773;50.806;8.776;2023-07-20T08:48:18;4.13;;;2.30;;
78484;SDS011;67773;50.806;8.776;2023-07-20T08:50:45;5.22;;;4.10;;
78484;SDS011;67773;50.806;8.776;2023-07-20T08:53:12;4.57;;;2.85;;
78484;SDS011;67773;50.806;8.776;2023-07-20T08:55:38;4.25;;;2.45;;
78484;SDS011;67773;50.806;8.776;2023-07-20T08:58:05;2.88;;;2.15;;
78484;SDS011;67773;50.806;8.776;2023-07-20T09:00:33;3.15;;;2.20;;
78484;SDS011;67773;50.806;8.776;2023-07-20T09:03:00;3.83;;;2.55;;
78484;SDS011;67773;50.806;8.776;2023-07-20T09:05:27;4.07;;;2.58;;
78484;SDS011;67773;50.806;8.776;2023-07-20T09:07:53;4.23;;;2.60;;
78484;SDS011;67773;50.806;8.776;2023-07-20T09:10:22;3.05;;;2.35;;
78484;SDS011;67773;50.806;8.776;2023-07-20T09:12:48;2.85;;;2.05;;
78484;SDS011;67773;50.806;8.776;2023-07-20T09:15:14;4.72;;;2.40;;
78484;SDS011;67773;50.806;8.776;2023-07-20T09:17:45;3.13;;;2.22;;
78484;SDS011;67773;50.806;8.776;2023-07-20T09:20:12;3.35;;;2.15;;
78484;SDS011;67773;50.806;8.776;2023-07-20T09:22:39;3.42;;;2.42;;
78484;SDS011;67773;50.806;8.776;2023-07-20T09:25:06;4.60;;;2.90;;
78484;SDS011;67773;50.806;8.776;2023-07-20T09:27:36;3.80;;;2.63;;
78484;SDS011;67773;50.806;8.776;2023-07-20T09:30:05;6.03;;;2.97;;
78484;SDS011;67773;50.806;8.776;2023-07-20T09:32:43;5.28;;;3.20;;
78484;SDS011;67773;50.806;8.776;2023-07-20T09:35:13;5.07;;;3.10;;
78484;SDS011;67773;50.806;8.776;2023-07-20T09:37:40;3.33;;;2.67;;
78484;SDS011;67773;50.806;8.776;2023-07-20T09:40:07;3.70;;;2.33;;
78484;SDS011;67773;50.806;8.776;2023-07-20T09:42:34;4.38;;;2.88;;
78484;SDS011;67773;50.806;8.776;2023-07-20T09:45:01;5.63;;;2.60;;
78484;SDS011;67773;50.806;8.776;2023-07-20T09:47:27;5.13;;;2.63;;
78484;SDS011;67773;50.806;8.776;2023-07-20T09:49:58;3.83;;;2.50;;
78484;SDS011;67773;50.806;8.776;2023-07-20T09:52:25;9.45;;;5.32;;
78484;SDS011;67773;50.806;8.776;2023-07-20T09:54:50;3.63;;;2.83;;
78484;SDS011;67773;50.806;8.776;2023-07-20T09:57:16;6.55;;;4.15;;
78484;SDS011;67773;50.806;8.776;2023-07-20T09:59:42;4.65;;;3.08;;
78484;SDS011;67773;50.806;8.776;2023-07-20T10:02:10;4.65;;;2.85;;
78484;SDS011;67773;50.806;8.776;2023-07-20T10:04:41;4.00;;;2.58;;
78484;SDS011;67773;50.806;8.776;2023-07-20T10:07:09;4.85;;;2.88;;
78484;SDS011;67773;50.806;8.776;2023-07-20T10:09:39;4.05;;;2.90;;
78484;SDS011;67773;50.806;8.776;2023-07-20T10:12:06;4.88;;;2.63;;
78484;SDS011;67773;50.806;8.776;2023-07-20T10:14:33;4.25;;;2.90;;
78484;SDS011;67773;50.806;8.776;2023-07-20T10:17:05;4.40;;;2.65;;
78484;SDS011;67773;50.806;8.776;2023-07-20T10:24:55;3.13;;;2.40;;
78484;SDS011;67773;50.806;8.776;2023-07-20T10:27:23;7.68;;;2.75;;
78484;SDS011;67773;50.806;8.776;2023-07-20T10:29:50;3.50;;;2.92;;
78484;SDS011;67773;50.806;8.776;2023-07-20T10:32:17;3.67;;;2.72;;
78484;SDS011;67773;50.806;8.776;2023-07-20T10:34:50;3.33;;;2.72;;
78484;SDS011;67773;50.806;8.776;2023-07-20T10:43:01;5.25;;;3.10;;
78484;SDS011;67773;50.806;8.776;2023-07-20T10:45:34;3.45;;;2.85;;
78484;SDS011;67773;50.806;8.776;2023-07-20T10:48:02;3.35;;;2.65;;
78484;SDS011;67773;50.806;8.776;2023-07-20T10:50:29;2.90;;;2.50;;
78484;SDS011;67773;50.806;8.776;2023-07-20T10:53:04;2.75;;;2.47;;
78484;SDS011;67773;50.806;8.776;2023-07-20T10:55:35;2.55;;;1.95;;
78484;SDS011;67773;50.806;8.776;2023-07-20T10:58:07;2.23;;;2.03;;
78484;SDS011;67773;50.806;8.776;2023-07-20T11:00:54;3.08;;;1.88;;
78484;SDS011;67773;50.806;8.776;2023-07-20T11:03:27;2.67;;;1.88;;
78484;SDS011;67773;50.806;8.776;2023-07-20T11:05:57;2.80;;;2.08;;
78484;SDS011;67773;50.806;8.776;2023-07-20T11:08:39;2.28;;;2.08;;
78484;SDS011;67773;50.806;8.776;2023-07-20T11:11:25;3.90;;;2.17;;
78484;SDS011;67773;50.806;8.776;2023-07-20T11:13:59;2.35;;;2.00;;
78484;SDS011;67773;50.806;8.776;2023-07-20T11:16:38;2.50;;;2.25;;
78484;SDS011;67773;50.806;8.776;2023-07-20T11:19:43;3.80;;;2.42;;
78484;SDS011;67773;50.806;8.776;2023-07-20T11:22:02;3.20;;;2.20;;
78484;SDS011;67773;50.806;8.776;2023-07-20T11:24:32;3.13;;;2.30;;
78484;SDS011;67773;50.806;8.776;2023-07-20T11:26:58;3.83;;;2.50;;
78484;SDS011;67773;50.806;8.776;2023-07-20T11:29:23;3.28;;;2.58;;
78484;SDS011;67773;50.806;8.776;2023-07-20T11:31:50;3.95;;;2.80;;
78484;SDS011;67773;50.806;8.776;2023-07-20T11:34:17;4.32;;;2.78;;
78484;SDS011;67773;50.806;8.776;2023-07-20T11:36:44;4.53;;;3.10;;
78484;SDS011;67773;50.806;8.776;2023-07-20T11:39:12;3.63;;;2.55;;
78484;SDS011;67773;50.806;8.776;2023-07-20T11:41:43;3.65;;;2.70;;
78484;SDS011;67773;50.806;8.776;2023-07-20T11:44:11;3.95;;;2.63;;
78484;SDS011;67773;50.806;8.776;2023-07-20T11:46:40;6.03;;;2.85;;
78484;SDS011;67773;50.806;8.776;2023-07-20T11:49:07;3.40;;;2.70;;
78484;SDS011;67773;50.806;8.776;2023-07-20T11:51:33;2.70;;;2.22;;
78484;SDS011;67773;50.806;8.776;2023-07-20T11:54:00;3.38;;;2.50;;
78484;SDS011;67773;50.806;8.776;2023-07-20T11:56:26;3.72;;;2.67;;
78484;SDS011;67773;50.806;8.776;2023-07-20T11:58:55;2.97;;;2.53;;
78484;SDS011;67773;50.806;8.776;2023-07-20T12:01:24;2.95;;;2.55;;
78484;SDS011;67773;50.806;8.776;2023-07-20T12:03:51;3.65;;;2.50;;
78484;SDS011;67773;50.806;8.776;2023-07-20T12:06:16;3.78;;;2.58;;
78484;SDS011;67773;50.806;8.776;2023-07-20T12:08:42;2.38;;;2.17;;
78484;SDS011;67773;50.806;8.776;2023-07-20T12:11:09;2.95;;;2.40;;
78484;SDS011;67773;50.806;8.776;2023-07-20T12:13:43;3.08;;;2.53;;
78484;SDS011;67773;50.806;8.776;2023-07-20T12:16:10;3.40;;;2.50;;
78484;SDS011;67773;50.806;8.776;2023-07-20T12:18:44;2.60;;;2.30;;
78484;SDS011;67773;50.806;8.776;2023-07-20T12:21:10;4.05;;;2.33;;
78484;SDS011;67773;50.806;8.776;2023-07-20T12:23:37;6.20;;;2.97;;
78484;SDS011;67773;50.806;8.776;2023-07-20T12:26:06;2.92;;;2.10;;
78484;SDS011;67773;50.806;8.776;2023-07-20T12:28:35;2.67;;;2.17;;
78484;SDS011;67773;50.806;8.776;2023-07-20T12:31:03;3.20;;;2.35;;
78484;SDS011;67773;50.806;8.776;2023-07-20T12:33:28;2.93;;;2.30;;
78484;SDS011;67773;50.806;8.776;2023-07-20T12:35:54;2.50;;;2.00;;
78484;SDS011;67773;50.806;8.776;2023-07-20T12:38:21;2.53;;;1.75;;
78484;SDS011;67773;50.806;8.776;2023-07-20T12:40:47;2.92;;;2.33;;
78484;SDS011;67773;50.806;8.776;2023-07-20T12:43:12;4.05;;;2.22;;
78484;SDS011;67773;50.806;8.776;2023-07-20T12:45:38;3.17;;;2.20;;
78484;SDS011;67773;50.806;8.776;2023-07-20T12:48:03;2.60;;;2.10;;
78484;SDS011;67773;50.806;8.776;2023-07-20T12:50:28;4.68;;;2.60;;
78484;SDS011;67773;50.806;8.776;2023-07-20T12:52:54;3.00;;;2.60;;
78484;SDS011;67773;50.806;8.776;2023-07-20T12:55:20;4.43;;;2.80;;
78484;SDS011;67773;50.806;8.776;2023-07-20T12:57:45;3.50;;;2.60;;
78484;SDS011;67773;50.806;8.776;2023-07-20T13:00:11;3.65;;;2.78;;
78484;SDS011;67773;50.806;8.776;2023-07-20T13:02:39;5.15;;;2.97;;
78484;SDS011;67773;50.806;8.776;2023-07-20T13:05:06;3.60;;;3.10;;
78484;SDS011;67773;50.806;8.776;2023-07-20T13:07:35;5.32;;;3.30;;
78484;SDS011;67773;50.806;8.776;2023-07-20T13:10:02;4.22;;;3.15;;
78484;SDS011;67773;50.806;8.776;2023-07-20T13:12:29;3.20;;;2.50;;
78484;SDS011;67773;50.806;8.776;2023-07-20T13:14:55;4.53;;;2.65;;
78484;SDS011;67773;50.806;8.776;2023-07-20T13:17:21;3.45;;;2.75;;
78484;SDS011;67773;50.806;8.776;2023-07-20T13:19:50;3.50;;;2.72;;
78484;SDS011;67773;50.806;8.776;2023-07-20T13:22:15;2.65;;;2.13;;
78484;SDS011;67773;50.806;8.776;2023-07-20T13:24:44;3.67;;;2.60;;
78484;SDS011;67773;50.806;8.776;2023-07-20T13:27:24;5.15;;;3.85;;
78484;SDS011;67773;50.806;8.776;2023-07-20T13:29:51;5.28;;;4.18;;
78484;SDS011;67773;50.806;8.776;2023-07-20T13:32:16;3.92;;;3.10;;
78484;SDS011;67773;50.806;8.776;2023-07-20T13:34:43;3.42;;;2.63;;
78484;SDS011;67773;50.806;8.776;2023-07-20T13:37:13;4.28;;;2.70;;
78484;SDS011;67773;50.806;8.776;2023-07-20T13:39:38;3.10;;;2.40;;
78484;SDS011;67773;50.806;8.776;2023-07-20T13:42:04;4.20;;;2.92;;
78484;SDS011;67773;50.806;8.776;2023-07-20T13:44:33;3.00;;;2.58;;
78484;SDS011;67773;50.806;8.776;2023-07-20T13:46:59;3.58;;;2.40;;
78484;SDS011;67773;50.806;8.776;2023-07-20T13:49:26;2.47;;;2.28;;
78484;SDS011;67773;50.806;8.776;2023-07-20T13:51:51;2.53;;;2.03;;
78484;SDS011;67773;50.806;8.776;2023-07-20T13:54:16;3.00;;;2.37;;
78484;SDS011;67773;50.806;8.776;2023-07-20T13:56:41;3.00;;;2.43;;
78484;SDS011;67773;50.806;8.776;2023-07-20T13:59:07;2.60;;;2.00;;
78484;SDS011;67773;50.806;8.776;2023-07-20T14:01:32;2.60;;;2.20;;
78484;SDS011;67773;50.806;8.776;2023-07-20T14:04:00;10.43;;;7.50;;
78484;SDS011;67773;50.806;8.776;2023-07-20T14:06:27;6.72;;;4.82;;
78484;SDS011;67773;50.806;8.776;2023-07-20T14:08:54;3.33;;;2.70;;
78484;SDS011;67773;50.806;8.776;2023-07-20T14:11:20;3.20;;;2.27;;
78484;SDS011;67773;50.806;8.776;2023-07-20T14:13:45;2.60;;;2.30;;
78484;SDS011;67773;50.806;8.776;2023-07-20T14:16:10;4.07;;;2.50;;
78484;SDS011;67773;50.806;8.776;2023-07-20T14:18:36;5.68;;;2.50;;
78484;SDS011;67773;50.806;8.776;2023-07-20T14:21:01;4.33;;;2.27;;
78484;SDS011;67773;50.806;8.776;2023-07-20T14:23:28;3.42;;;2.42;;
78484;SDS011;67773;50.806;8.776;2023-07-20T14:25:53;4.30;;;2.75;;
78484;SDS011;67773;50.806;8.776;2023-07-20T14:28:19;2.20;;;2.00;;
78484;SDS011;67773;50.806;8.776;2023-07-20T14:30:45;2.88;;;1.80;;
78484;SDS011;67773;50.806;8.776;2023-07-20T14:33:10;3.05;;;1.63;;
78484;SDS011;67773;50.806;8.776;2023-07-20T14:35:35;2.60;;;1.60;;
78484;SDS011;67773;50.806;8.776;2023-07-20T14:38:01;2.50;;;1.80;;
78484;SDS011;67773;50.806;8.776;2023-07-20T14:40:26;2.00;;;1.50;;
78484;SDS011;67773;50.806;8.776;2023-07-20T14:42:52;2.10;;;1.60;;
78484;SDS011;67773;50.806;8.776;2023-07-20T14:45:17;2.10;;;1.60;;
78484;SDS011;67773;50.806;8.776;2023-07-20T14:47:43;3.08;;;1.85;;
78484;SDS011;67773;50.806;8.776;2023-07-20T14:50:08;8.02;;;5.25;;
78484;SDS011;67773;50.806;8.776;2023-07-20T14:52:34;2.88;;;1.50;;
78484;SDS011;67773;50.806;8.776;2023-07-20T14:55:00;1.75;;;1.20;;
78484;SDS011;67773;50.806;8.776;2023-07-20T14:57:25;2.43;;;1.43;;
78484;SDS011;67773;50.806;8.776;2023-07-20T14:59:50;1.90;;;1.40;;
78484;SDS011;67773;50.806;8.776;2023-07-20T15:02:16;1.88;;;1.40;;
78484;SDS011;67773;50.806;8.776;2023-07-20T15:04:47;1.70;;;1.47;;